createdAt,value
2022-11-29T00:01:28.301Z,81.19
2022-11-29T00:11:54.590Z,81.57
2022-11-29T00:21:56.958Z,81.02
2022-11-29T00:31:59.951Z,81.52
2022-11-29T00:42:02.231Z,81.68
2022-11-29T00:52:04.736Z,81.91
2022-11-29T01:02:07.057Z,81.68
2022-11-29T01:12:09.359Z,81.85
2022-11-29T01:22:13.723Z,82.85
2022-11-29T01:32:15.894Z,82.02
2022-11-29T01:42:18.126Z,82.11
2022-11-29T01:52:27.665Z,81.81
2022-11-29T02:02:43.502Z,82.67
2022-11-29T02:13:03.888Z,81.82
2022-11-29T02:23:39.581Z,81.88
2022-11-29T02:34:11.041Z,81.61
2022-11-29T02:44:35.041Z,81.88
2022-11-29T02:54:47.936Z,81.76
2022-11-29T03:05:12.709Z,81.49
2022-11-29T03:15:33.121Z,82.00
2022-11-29T03:25:53.700Z,81.74
2022-11-29T03:36:16.427Z,81.54
2022-11-29T03:46:44.104Z,81.52
2022-11-29T03:56:46.636Z,81.61
2022-11-29T04:07:01.785Z,82.04
2022-11-29T04:17:51.523Z,81.89
2022-11-29T04:28:17.752Z,81.96
2022-11-29T04:38:47.171Z,82.00
2022-11-29T04:49:01.328Z,81.72
2022-11-29T04:59:12.979Z,82.05
2022-11-29T05:09:36.647Z,82.03
2022-11-29T05:19:46.782Z,81.95
2022-11-29T05:30:04.533Z,81.99
2022-11-29T05:40:28.174Z,81.88
2022-11-29T05:50:54.564Z,81.93
2022-11-29T06:01:35.088Z,81.74
2022-11-29T06:11:50.724Z,82.21
2022-11-29T06:22:26.712Z,82.44
2022-11-29T06:32:54.486Z,82.25
2022-11-29T06:42:56.690Z,81.99
2022-11-29T06:53:07.658Z,82.25
2022-11-29T07:03:31.140Z,82.43
2022-11-29T07:13:33.529Z,83.55
2022-11-29T07:24:24.417Z,83.68
2022-11-29T07:34:58.442Z,84.94
2022-11-29T07:45:29.756Z,85.03
2022-11-29T07:55:34.512Z,84.16
2022-11-29T08:05:38.406Z,83.18
2022-11-29T08:15:45.606Z,81.66
2022-11-29T08:25:48.634Z,80.08
2022-11-29T08:35:50.838Z,78.42
2022-11-29T08:45:53.417Z,79.29
2022-11-29T08:55:59.476Z,77.71
2022-11-29T09:06:13.010Z,76.81
2022-11-29T09:16:20.819Z,73.64
2022-11-29T09:26:23.152Z,73.67
2022-11-29T09:36:28.749Z,72.68
2022-11-29T09:46:58.539Z,72.40
2022-11-29T09:57:10.169Z,72.27
2022-11-29T10:07:24.500Z,68.86
2022-11-29T10:17:43.500Z,68.82
2022-11-29T10:27:45.963Z,67.10
2022-11-29T10:38:28.624Z,67.48
2022-11-29T10:48:17.866Z,66.13
2022-11-29T10:58:28.412Z,68.41
2022-11-29T11:08:32.616Z,63.72
2022-11-29T11:18:35.391Z,66.81
2022-11-29T11:29:01.935Z,64.98
2022-11-29T11:39:13.510Z,64.32
2022-11-29T11:49:29.927Z,63.21
2022-11-29T11:59:32.191Z,60.81
2022-11-29T12:09:40.670Z,62.16
2022-11-29T12:19:50.759Z,63.55
2022-11-29T12:29:53.067Z,62.86
2022-11-29T12:40:05.381Z,63.45
2022-11-29T12:50:40.355Z,62.03
2022-11-29T13:00:56.394Z,64.37
2022-11-29T13:11:14.626Z,62.52
2022-11-29T13:21:22.639Z,63.47
2022-11-29T13:31:25.845Z,64.43
2022-11-29T13:41:28.162Z,64.25
2022-11-29T13:51:35.552Z,66.57
2022-11-29T14:01:47.081Z,67.75
2022-11-29T14:12:19.758Z,68.63
2022-11-29T14:22:22.452Z,68.48
2022-11-29T14:32:45.992Z,69.02
2022-11-29T14:42:50.229Z,67.13
2022-11-29T14:52:52.756Z,69.51
2022-11-29T15:03:21.361Z,70.19
2022-11-29T15:13:28.177Z,70.66
2022-11-29T15:23:40.625Z,70.87
2022-11-29T15:33:46.050Z,71.96
2022-11-29T15:43:54.518Z,72.20
2022-11-29T15:54:13.230Z,73.31
2022-11-29T16:04:20.404Z,73.27
2022-11-29T16:14:28.469Z,73.89
2022-11-29T16:24:33.990Z,73.98
2022-11-29T16:34:36.175Z,74.28
2022-11-29T16:44:41.591Z,74.97
2022-11-29T16:54:44.139Z,75.40
2022-11-29T17:04:46.967Z,75.61
2022-11-29T17:14:49.409Z,76.51
2022-11-29T17:24:51.960Z,76.46
2022-11-29T17:34:54.435Z,77.14
2022-11-29T17:44:56.611Z,77.24
2022-11-29T17:54:59.104Z,77.39
2022-11-29T18:05:01.338Z,78.72
2022-11-29T18:15:03.679Z,79.15
2022-11-29T18:25:37.078Z,78.70
2022-11-29T18:35:28.507Z,78.71
2022-11-29T18:45:30.706Z,79.07
2022-11-29T18:55:33.317Z,78.76
2022-11-29T19:05:35.482Z,79.04
2022-11-29T19:15:37.679Z,79.00
2022-11-29T19:25:40.053Z,79.44
2022-11-29T19:35:42.220Z,79.28
2022-11-29T19:45:44.526Z,79.21
2022-11-29T19:55:46.797Z,79.13
2022-11-29T20:05:55.843Z,79.20
2022-11-29T20:16:03.477Z,79.62
2022-11-29T20:26:08.213Z,79.57
2022-11-29T20:36:30.415Z,79.40
2022-11-29T20:46:32.810Z,79.87
2022-11-29T20:56:35.009Z,79.46
2022-11-29T21:06:38.167Z,79.40
2022-11-29T21:16:40.632Z,79.61
2022-11-29T21:26:50.928Z,79.53
2022-11-29T21:40:13.079Z,79.33
2022-11-29T21:50:15.415Z,78.99
2022-11-29T22:00:18.103Z,79.02
2022-11-29T22:10:20.272Z,78.81
2022-11-29T22:20:22.675Z,79.08
2022-11-29T22:30:24.884Z,79.80
2022-11-29T22:40:27.044Z,78.49
2022-11-29T22:50:29.223Z,78.92
2022-11-29T23:00:32.216Z,79.00
2022-11-29T23:10:34.444Z,79.25
2022-11-29T23:20:37.592Z,79.68
2022-11-29T23:30:39.737Z,79.76
2022-11-29T23:40:43.812Z,79.69
2022-11-29T23:50:46.695Z,79.79
